createdAt,value
2022-12-27T00:00:03.173Z,1002.00
2022-12-27T00:01:03.061Z,1060.00
2022-12-27T00:02:03.033Z,1062.00
2022-12-27T00:03:03.027Z,1062.00
2022-12-27T00:04:02.903Z,1068.00
2022-12-27T10:47:52.434Z,500.00
2022-12-27T10:49:19.530Z,500.00
2022-12-27T10:49:53.633Z,500.00
2022-12-27T10:50:53.449Z,500.00
2022-12-27T10:51:53.293Z,500.00
2022-12-27T10:52:57.518Z,500.00
2022-12-27T10:53:53.552Z,500.00
2022-12-27T10:54:53.652Z,500.00
2022-12-27T10:55:53.716Z,500.00
2022-12-27T10:56:53.687Z,500.00
2022-12-27T10:57:53.927Z,500.00
2022-12-27T10:58:58.820Z,431.00
2022-12-27T10:59:53.745Z,400.00
2022-12-27T11:00:53.848Z,400.00
2022-12-27T11:01:53.985Z,400.00
2022-12-27T11:02:53.891Z,400.00
2022-12-27T11:03:53.885Z,400.00
2022-12-27T11:04:54.029Z,400.00
2022-12-27T11:05:54.066Z,400.00
2022-12-27T11:06:53.960Z,400.00
2022-12-27T11:07:54.056Z,400.00
2022-12-27T11:08:53.978Z,400.00
2022-12-27T11:09:53.969Z,400.00
2022-12-27T11:10:54.059Z,400.00
2022-12-27T11:11:54.039Z,400.00
2022-12-27T11:12:54.049Z,400.00
2022-12-27T11:13:54.065Z,400.00
2022-12-27T11:14:54.060Z,400.00
2022-12-27T11:15:58.273Z,400.00
2022-12-27T11:16:54.102Z,400.00
2022-12-27T11:17:54.090Z,400.00
2022-12-27T11:18:54.144Z,400.00
2022-12-27T11:19:54.079Z,400.00
2022-12-27T11:20:54.280Z,400.00
2022-12-27T11:21:54.135Z,400.00
2022-12-27T11:22:54.192Z,400.00
2022-12-27T11:23:54.332Z,400.00
2022-12-27T11:24:54.195Z,400.00
2022-12-27T11:25:54.319Z,418.00
2022-12-27T11:26:54.589Z,461.00
2022-12-27T11:27:54.351Z,445.00
2022-12-27T11:28:54.304Z,492.00
2022-12-27T11:29:54.321Z,518.00
2022-12-27T11:30:54.361Z,530.00
2022-12-27T11:31:54.481Z,531.00
2022-12-27T11:32:54.344Z,515.00
2022-12-27T11:33:54.420Z,547.00
2022-12-27T11:34:54.411Z,542.00
2022-12-27T11:35:54.443Z,522.00
2022-12-27T11:36:54.506Z,509.00
2022-12-27T11:37:54.519Z,497.00
2022-12-27T11:38:54.534Z,527.00
2022-12-27T11:39:54.609Z,556.00
2022-12-27T11:40:54.603Z,571.00
2022-12-27T11:41:54.675Z,570.00
2022-12-27T11:42:54.762Z,530.00
2022-12-27T11:43:54.659Z,491.00
2022-12-27T11:44:54.704Z,443.00
2022-12-27T11:45:54.687Z,400.00
2022-12-27T11:46:59.011Z,400.00
2022-12-27T11:47:54.729Z,400.00
2022-12-27T11:48:56.389Z,400.00
2022-12-27T11:49:54.811Z,400.00
2022-12-27T11:50:54.925Z,400.00
2022-12-27T11:51:54.826Z,400.00
2022-12-27T11:52:54.891Z,400.00
2022-12-27T11:53:56.564Z,400.00
2022-12-27T11:54:54.806Z,400.00
2022-12-27T11:55:54.851Z,400.00
2022-12-27T11:56:54.914Z,400.00
2022-12-27T11:57:54.849Z,400.00
2022-12-27T11:58:55.006Z,400.00
2022-12-27T11:59:54.931Z,416.00
2022-12-27T12:00:57.004Z,433.00
2022-12-27T12:01:55.144Z,434.00
2022-12-27T12:02:55.197Z,443.00
2022-12-27T12:03:55.025Z,471.00
2022-12-27T12:04:55.128Z,496.00
2022-12-27T12:05:55.078Z,557.00
2022-12-27T12:06:55.120Z,585.00
2022-12-27T12:07:55.046Z,613.00
2022-12-27T12:08:55.111Z,583.00
2022-12-27T12:09:55.099Z,642.00
2022-12-27T12:10:55.156Z,601.00
2022-12-27T12:11:55.510Z,509.00
2022-12-27T12:12:55.095Z,563.00
2022-12-27T12:13:55.135Z,658.00
2022-12-27T12:14:55.156Z,592.00
2022-12-27T12:15:55.183Z,570.00
2022-12-27T12:16:55.523Z,547.00
2022-12-27T12:17:55.108Z,601.00
2022-12-27T12:18:55.233Z,570.00
2022-12-27T12:19:55.235Z,521.00
2022-12-27T12:20:55.279Z,500.00
2022-12-27T12:21:55.362Z,523.00
2022-12-27T12:22:55.392Z,481.00
2022-12-27T12:23:55.254Z,522.00
2022-12-27T12:24:55.231Z,618.00
2022-12-27T12:25:55.382Z,656.00
2022-12-27T12:26:56.096Z,609.00
2022-12-27T12:27:55.375Z,584.00
2022-12-27T12:28:58.754Z,536.00
2022-12-27T12:29:55.400Z,540.00
2022-12-27T12:30:55.397Z,543.00
2022-12-27T12:31:55.498Z,558.00
2022-12-27T12:32:55.395Z,614.00
2022-12-27T12:33:55.533Z,654.00
2022-12-27T12:34:55.446Z,570.00
2022-12-27T12:35:55.402Z,620.00
2022-12-27T12:36:55.410Z,572.00
2022-12-27T12:37:55.503Z,583.00
2022-12-27T12:38:55.478Z,713.00
2022-12-27T12:39:55.439Z,677.00
2022-12-27T12:40:55.422Z,800.00
2022-12-27T12:41:55.412Z,811.00
2022-12-27T12:42:55.464Z,800.00
2022-12-27T12:43:55.445Z,632.00
2022-12-27T12:44:55.585Z,629.00
2022-12-27T12:45:55.547Z,648.00
2022-12-27T12:46:55.674Z,634.00
2022-12-27T12:47:55.631Z,632.00
2022-12-27T12:48:55.503Z,572.00
2022-12-27T12:49:55.503Z,607.00
2022-12-27T12:50:55.564Z,664.00
2022-12-27T12:51:55.520Z,794.00
2022-12-27T12:52:55.542Z,904.00
2022-12-27T12:53:55.502Z,1059.00
2022-12-27T12:54:55.474Z,830.00
2022-12-27T12:55:55.658Z,867.00
2022-12-27T12:56:55.563Z,850.00
2022-12-27T12:57:55.719Z,950.00
2022-12-27T12:58:55.650Z,962.00
2022-12-27T12:59:55.565Z,1035.00
2022-12-27T13:00:55.674Z,958.00
2022-12-27T13:01:55.710Z,846.00
2022-12-27T13:02:55.685Z,811.00
2022-12-27T13:03:55.541Z,847.00
2022-12-27T13:04:55.533Z,851.00
2022-12-27T13:05:55.651Z,887.00
2022-12-27T13:06:55.597Z,911.00
2022-12-27T13:07:55.660Z,1058.00
2022-12-27T13:08:55.622Z,1225.00
2022-12-27T13:09:55.669Z,1183.00
2022-12-27T13:10:55.701Z,951.00
2022-12-27T13:11:55.595Z,1017.00
2022-12-27T13:12:55.680Z,924.00
2022-12-27T13:13:55.668Z,993.00
2022-12-27T13:14:55.595Z,1025.00
2022-12-27T13:15:55.659Z,886.00
2022-12-27T13:16:55.696Z,710.00
2022-12-27T13:17:55.646Z,902.00
2022-12-27T13:18:55.721Z,810.00
2022-12-27T13:19:55.621Z,1023.00
2022-12-27T13:20:55.595Z,1093.00
2022-12-27T13:21:55.693Z,1152.00
2022-12-27T13:22:55.628Z,981.00
2022-12-27T13:23:55.768Z,681.00
2022-12-27T13:24:55.602Z,591.00
2022-12-27T13:25:55.706Z,600.00
2022-12-27T13:26:55.707Z,587.00
2022-12-27T13:27:55.783Z,613.00
2022-12-27T13:28:55.788Z,641.00
2022-12-27T13:29:56.803Z,616.00
2022-12-27T13:30:55.788Z,552.00
2022-12-27T13:31:55.841Z,533.00
2022-12-27T13:32:55.972Z,563.00
2022-12-27T13:33:55.827Z,580.00
2022-12-27T13:34:55.932Z,668.00
2022-12-27T13:35:55.884Z,982.00
2022-12-27T13:36:55.918Z,928.00
2022-12-27T13:37:55.747Z,877.00
2022-12-27T13:38:55.755Z,887.00
2022-12-27T13:39:55.791Z,957.00
2022-12-27T13:40:55.719Z,915.00
2022-12-27T13:41:55.798Z,912.00
2022-12-27T13:42:55.751Z,797.00
2022-12-27T13:43:55.684Z,936.00
2022-12-27T13:44:55.709Z,1003.00
2022-12-27T13:45:55.776Z,1021.00
2022-12-27T13:46:55.769Z,1055.00
2022-12-27T13:47:55.797Z,967.00
2022-12-27T13:48:55.755Z,1153.00
2022-12-27T13:49:55.826Z,1001.00
2022-12-27T13:50:55.825Z,902.00
2022-12-27T13:51:55.787Z,780.00
2022-12-27T13:52:59.767Z,814.00
2022-12-27T13:53:55.877Z,816.00
2022-12-27T13:54:55.851Z,795.00
2022-12-27T13:55:55.795Z,657.00
2022-12-27T13:56:56.007Z,731.00
2022-12-27T13:57:56.031Z,875.00
2022-12-27T13:58:59.532Z,1062.00
2022-12-27T13:59:55.914Z,1066.00
2022-12-27T14:00:56.003Z,1107.00
2022-12-27T14:01:55.974Z,1173.00
2022-12-27T14:02:56.054Z,1302.00
2022-12-27T14:03:55.851Z,1310.00
2022-12-27T14:04:59.546Z,1244.00
2022-12-27T14:05:55.874Z,1208.00
2022-12-27T14:06:55.792Z,1245.00
2022-12-27T14:07:55.886Z,1233.00
2022-12-27T14:08:55.870Z,1123.00
2022-12-27T14:09:55.889Z,946.00
2022-12-27T14:11:00.723Z,970.00
2022-12-27T14:11:55.834Z,970.00
2022-12-27T14:12:55.923Z,988.00
2022-12-27T14:13:55.921Z,1036.00
2022-12-27T14:14:55.901Z,1126.00
2022-12-27T14:15:56.012Z,1213.00
2022-12-27T14:16:59.449Z,1086.00
2022-12-27T14:17:55.856Z,1090.00
2022-12-27T14:18:55.949Z,1122.00
2022-12-27T14:19:55.974Z,1226.00
2022-12-27T14:20:55.893Z,1331.00
2022-12-27T14:21:55.896Z,1373.00
2022-12-27T14:22:55.832Z,1369.00
2022-12-27T14:23:55.839Z,1401.00
2022-12-27T14:24:55.892Z,1493.00
2022-12-27T14:25:55.915Z,1794.00
2022-12-27T14:26:55.861Z,2734.00
2022-12-27T14:27:55.886Z,2535.00
2022-12-27T14:28:59.768Z,2002.00
2022-12-27T14:29:55.818Z,1836.00
2022-12-27T14:30:55.878Z,1796.00
2022-12-27T14:31:55.855Z,2015.00
2022-12-27T14:32:55.787Z,2169.00
2022-12-27T14:33:55.807Z,2354.00
2022-12-27T14:34:59.326Z,2248.00
2022-12-27T14:35:55.820Z,2028.00
2022-12-27T14:36:55.786Z,1885.00
2022-12-27T14:37:55.733Z,1850.00
2022-12-27T14:38:55.762Z,1881.00
2022-12-27T14:39:55.756Z,1827.00
2022-12-27T14:40:55.758Z,1764.00
2022-12-27T14:41:55.860Z,1875.00
2022-12-27T14:42:55.720Z,1983.00
2022-12-27T14:43:55.823Z,1851.00
2022-12-27T14:44:55.636Z,2067.00
2022-12-27T14:45:57.877Z,2169.00
2022-12-27T14:46:55.610Z,1991.00
2022-12-27T14:47:55.618Z,1810.00
2022-12-27T14:48:55.543Z,1719.00
2022-12-27T14:49:55.604Z,1615.00
2022-12-27T14:50:55.620Z,1573.00
2022-12-27T14:52:10.327Z,1712.00
2022-12-27T14:52:55.570Z,1616.00
2022-12-27T14:53:55.483Z,1598.00
2022-12-27T14:54:55.574Z,1510.00
2022-12-27T14:55:55.555Z,1528.00
2022-12-27T14:56:55.488Z,1516.00
2022-12-27T14:57:55.436Z,1595.00
2022-12-27T14:58:55.552Z,1506.00
2022-12-27T14:59:55.464Z,1781.00
2022-12-27T15:00:55.377Z,1600.00
2022-12-27T15:01:55.492Z,1564.00
2022-12-27T15:02:55.609Z,1767.00
2022-12-27T15:03:55.460Z,1860.00
2022-12-27T15:04:55.435Z,2134.00
2022-12-27T15:05:55.451Z,2224.00
2022-12-27T15:06:55.380Z,2185.00
2022-12-27T15:07:55.331Z,2189.00
2022-12-27T15:08:55.373Z,2251.00
2022-12-27T15:09:55.336Z,2165.00
2022-12-27T15:10:55.340Z,2160.00
2022-12-27T15:11:55.340Z,2054.00
2022-12-27T15:12:55.374Z,2144.00
2022-12-27T15:13:55.337Z,2197.00
2022-12-27T15:14:55.294Z,2100.00
2022-12-27T15:15:55.312Z,1992.00
2022-12-27T15:16:55.323Z,2073.00
2022-12-27T15:17:55.228Z,2198.00
2022-12-27T15:18:55.251Z,2203.00
2022-12-27T15:19:55.198Z,2211.00
2022-12-27T15:20:55.165Z,1944.00
2022-12-27T15:21:55.173Z,1945.00
2022-12-27T15:22:55.130Z,2086.00
2022-12-27T15:23:55.117Z,2092.00
2022-12-27T15:24:55.111Z,2058.00
2022-12-27T15:25:55.139Z,1908.00
2022-12-27T15:26:55.046Z,1965.00
2022-12-27T15:27:55.114Z,2005.00
2022-12-27T15:28:55.029Z,1991.00
2022-12-27T15:29:55.134Z,1904.00
2022-12-27T15:30:55.271Z,1949.00
2022-12-27T15:31:55.036Z,2005.00
2022-12-27T15:32:55.068Z,2417.00
2022-12-27T15:33:54.998Z,2579.00
2022-12-27T15:34:54.998Z,2626.00
2022-12-27T15:35:55.172Z,2542.00
2022-12-27T15:36:54.948Z,2428.00
2022-12-27T15:37:55.008Z,2172.00
2022-12-27T15:38:55.281Z,2175.00
2022-12-27T15:39:55.035Z,2363.00
2022-12-27T15:40:54.974Z,2611.00
2022-12-27T15:41:55.035Z,2778.00
2022-12-27T15:42:55.092Z,2922.00
2022-12-27T15:43:55.038Z,3036.00
2022-12-27T15:44:54.996Z,3033.00
2022-12-27T15:45:55.029Z,2944.00
2022-12-27T15:46:55.070Z,2897.00
2022-12-27T15:47:55.049Z,2865.00
2022-12-27T15:48:55.036Z,2826.00
2022-12-27T15:49:55.005Z,2718.00
2022-12-27T15:50:55.023Z,2731.00
2022-12-27T15:51:55.030Z,2652.00
2022-12-27T15:52:55.066Z,2477.00
2022-12-27T15:53:55.342Z,2594.00
2022-12-27T15:54:55.062Z,2623.00
2022-12-27T15:55:55.073Z,2493.00
2022-12-27T15:56:55.117Z,2444.00
2022-12-27T15:57:55.191Z,2497.00
2022-12-27T15:58:55.060Z,2503.00
2022-12-27T15:59:55.105Z,2551.00
2022-12-27T16:00:55.175Z,2476.00
2022-12-27T16:01:55.190Z,2462.00
2022-12-27T16:02:55.297Z,2371.00
2022-12-27T16:03:55.270Z,2412.00
2022-12-27T16:04:55.141Z,2438.00
2022-12-27T16:05:55.161Z,2310.00
2022-12-27T16:06:59.012Z,2320.00
2022-12-27T16:07:55.062Z,2311.00
2022-12-27T16:08:55.158Z,2313.00
2022-12-27T16:09:55.341Z,2348.00
2022-12-27T16:10:55.132Z,2438.00
2022-12-27T16:11:55.090Z,2645.00
2022-12-27T16:12:55.232Z,2647.00
2022-12-27T16:13:55.206Z,2281.00
2022-12-27T16:14:55.172Z,2127.00
2022-12-27T16:15:55.202Z,2083.00
2022-12-27T16:16:55.254Z,2010.00
2022-12-27T16:17:55.166Z,2084.00
2022-12-27T16:18:55.307Z,2157.00
2022-12-27T16:19:55.204Z,2276.00
2022-12-27T16:20:55.173Z,2395.00
2022-12-27T16:21:55.247Z,2471.00
2022-12-27T16:22:55.167Z,2507.00
2022-12-27T16:23:55.191Z,2420.00
2022-12-27T16:24:55.153Z,2426.00
2022-12-27T16:25:55.260Z,2407.00
2022-12-27T16:26:55.237Z,2322.00
2022-12-27T16:27:55.153Z,2341.00
2022-12-27T16:28:55.161Z,2400.00
2022-12-27T16:29:55.133Z,2436.00
2022-12-27T16:30:55.290Z,2361.00
2022-12-27T16:31:55.268Z,2282.00
2022-12-27T16:32:55.245Z,2043.00
2022-12-27T16:33:55.358Z,2012.00
2022-12-27T16:34:55.474Z,1971.00
2022-12-27T16:35:55.303Z,1882.00
2022-12-27T16:36:55.204Z,1876.00
2022-12-27T16:37:55.195Z,1961.00
2022-12-27T16:38:55.160Z,2020.00
2022-12-27T16:39:55.171Z,2010.00
2022-12-27T16:40:55.265Z,2020.00
2022-12-27T16:41:55.124Z,2064.00
2022-12-27T16:42:55.243Z,2097.00
2022-12-27T16:43:55.146Z,2095.00
2022-12-27T16:44:55.210Z,2060.00
2022-12-27T16:45:55.187Z,1958.00
2022-12-27T16:46:55.254Z,2431.00
2022-12-27T16:47:55.180Z,2528.00
2022-12-27T16:48:55.151Z,2433.00
2022-12-27T16:49:55.299Z,2356.00
2022-12-27T16:50:55.196Z,2161.00
2022-12-27T16:51:55.332Z,2140.00
2022-12-27T16:52:55.137Z,2082.00
2022-12-27T16:53:55.165Z,2160.00
2022-12-27T16:54:55.246Z,2157.00
2022-12-27T16:55:55.354Z,2290.00
2022-12-27T16:56:55.227Z,2406.00
2022-12-27T16:57:55.112Z,2548.00
2022-12-27T16:58:55.185Z,2600.00
2022-12-27T16:59:55.194Z,2646.00
2022-12-27T17:00:55.229Z,2562.00
2022-12-27T17:01:55.334Z,2580.00
2022-12-27T17:02:55.135Z,2652.00
2022-12-27T17:03:55.189Z,2705.00
2022-12-27T17:04:55.469Z,2545.00
2022-12-27T17:06:55.378Z,2263.00
2022-12-27T17:07:55.242Z,2249.00
2022-12-27T17:08:55.124Z,2271.00
2022-12-27T17:09:55.115Z,2294.00
2022-12-27T17:10:55.243Z,2337.00
2022-12-27T17:11:55.249Z,2439.00
2022-12-27T17:12:55.162Z,2459.00
2022-12-27T17:13:55.318Z,2512.00
2022-12-27T17:14:55.233Z,2631.00
2022-12-27T17:15:55.145Z,2738.00
2022-12-27T18:43:54.893Z,2370.00
2022-12-27T18:44:54.894Z,2339.00
2022-12-27T18:45:54.992Z,2378.00
2022-12-27T18:46:54.913Z,2397.00
2022-12-27T18:47:55.971Z,2381.00
2022-12-27T18:48:54.859Z,2421.00
2022-12-27T18:49:54.844Z,2494.00
2022-12-27T18:50:54.867Z,2564.00
2022-12-27T18:51:54.868Z,2572.00
2022-12-27T18:52:55.260Z,2642.00
2022-12-27T18:53:54.903Z,2750.00
2022-12-27T18:54:54.966Z,2870.00
2022-12-27T18:55:54.903Z,2892.00
2022-12-27T18:56:54.930Z,2809.00
2022-12-27T18:57:55.002Z,2666.00
2022-12-27T18:58:54.816Z,2688.00
2022-12-27T18:59:54.837Z,2718.00
2022-12-27T19:00:54.918Z,2736.00
2022-12-27T19:01:54.997Z,2769.00
2022-12-27T19:02:55.012Z,2772.00
2022-12-27T19:03:55.038Z,2788.00
2022-12-27T19:04:54.863Z,2761.00
2022-12-27T19:05:54.886Z,2743.00
2022-12-27T19:06:55.018Z,2758.00
2022-12-27T19:07:54.988Z,2751.00
2022-12-27T19:08:53.899Z,2754.00
2022-12-27T19:09:54.934Z,2772.00
2022-12-27T19:10:54.797Z,2838.00
2022-12-27T19:11:54.724Z,2855.00
2022-12-27T19:12:54.764Z,2890.00
2022-12-27T19:13:54.751Z,2902.00
2022-12-27T19:14:54.755Z,2920.00
2022-12-27T19:15:54.874Z,2930.00
2022-12-27T19:16:54.821Z,2911.00
2022-12-27T19:17:54.738Z,2892.00
2022-12-27T19:18:54.755Z,2867.00
2022-12-27T19:19:54.751Z,2853.00
2022-12-27T19:20:54.763Z,2827.00
2022-12-27T19:21:54.682Z,2868.00
2022-12-27T19:22:54.709Z,2917.00
2022-12-27T19:23:54.697Z,3004.00
2022-12-27T19:24:54.715Z,3042.00
2022-12-27T19:25:54.769Z,3068.00
2022-12-27T19:26:54.752Z,3050.00
2022-12-27T19:27:54.694Z,2988.00
2022-12-27T19:28:54.818Z,2982.00
2022-12-27T19:29:54.793Z,2966.00
2022-12-27T19:30:54.774Z,2984.00
2022-12-27T19:31:54.939Z,3046.00
2022-12-27T19:32:54.773Z,3058.00
2022-12-27T19:33:54.780Z,3159.00
2022-12-27T19:34:54.830Z,3229.00
2022-12-27T19:35:54.807Z,3280.00
2022-12-27T19:36:54.798Z,3301.00
2022-12-27T19:37:54.704Z,3329.00
2022-12-27T19:38:54.839Z,3375.00
2022-12-27T19:39:54.691Z,3424.00
2022-12-27T19:41:01.278Z,3499.00
2022-12-27T19:42:00.329Z,3501.00
2022-12-27T19:42:54.726Z,3502.00
2022-12-27T19:43:54.744Z,3511.00
2022-12-27T19:44:54.758Z,3457.00
2022-12-27T19:45:54.739Z,3252.00
2022-12-27T19:46:54.794Z,3119.00
2022-12-27T19:47:54.730Z,3044.00
2022-12-27T19:49:31.742Z,2888.00
2022-12-27T19:49:54.735Z,2749.00
2022-12-27T19:50:54.732Z,2730.00
2022-12-27T19:51:54.775Z,2687.00
2022-12-27T19:52:54.722Z,2672.00
2022-12-27T19:53:57.998Z,2726.00
2022-12-27T19:54:54.716Z,2653.00
2022-12-27T19:55:54.723Z,2623.00
2022-12-27T19:56:54.735Z,2628.00
2022-12-27T19:57:54.765Z,2607.00
2022-12-27T19:58:54.807Z,2637.00
2022-12-27T19:59:55.011Z,2804.00
2022-12-27T20:00:54.889Z,2925.00
2022-12-27T20:01:55.058Z,3070.00
2022-12-27T20:02:54.985Z,3162.00
2022-12-27T20:03:54.859Z,3219.00
2022-12-27T20:04:54.976Z,3242.00
2022-12-27T20:06:13.838Z,3252.00
2022-12-27T20:06:54.818Z,3213.00
2022-12-27T20:07:54.825Z,3131.00
2022-12-27T20:08:54.862Z,3089.00
2022-12-27T20:09:54.988Z,3088.00
2022-12-27T20:10:55.495Z,3087.00
2022-12-27T20:11:54.903Z,3108.00
2022-12-27T20:12:54.911Z,3073.00
2022-12-27T20:13:54.877Z,3089.00
2022-12-27T20:14:54.981Z,3140.00
2022-12-27T20:15:55.019Z,3225.00
2022-12-27T20:16:54.942Z,3264.00
2022-12-27T20:17:54.930Z,3304.00
2022-12-27T20:18:55.062Z,3321.00
2022-12-27T20:19:55.915Z,3338.00
2022-12-27T20:20:54.981Z,3369.00
2022-12-27T20:21:54.963Z,3383.00
2022-12-27T20:22:55.023Z,3368.00
2022-12-27T20:23:55.010Z,3324.00
2022-12-27T20:24:55.121Z,3269.00
2022-12-27T20:25:55.022Z,3254.00
2022-12-27T20:26:55.103Z,3184.00
2022-12-27T20:27:55.176Z,3165.00
2022-12-27T20:28:55.084Z,3175.00
2022-12-27T20:29:55.089Z,3030.00
2022-12-27T20:30:55.135Z,2830.00
2022-12-27T20:31:55.276Z,2830.00
2022-12-27T20:32:55.179Z,2809.00
2022-12-27T20:33:55.089Z,2724.00
2022-12-27T20:34:55.152Z,2664.00
2022-12-27T20:35:55.153Z,2652.00
2022-12-27T20:36:55.115Z,2894.00
2022-12-27T20:37:55.221Z,3068.00
2022-12-27T20:38:55.230Z,3094.00
2022-12-27T20:39:55.203Z,3035.00
2022-12-27T20:40:55.181Z,3042.00
2022-12-27T20:41:55.187Z,3085.00
2022-12-27T20:42:55.221Z,3102.00
2022-12-27T20:43:55.239Z,3179.00
2022-12-27T20:44:55.246Z,3233.00
2022-12-27T20:45:55.286Z,3256.00
2022-12-27T20:46:55.231Z,3257.00
2022-12-27T20:47:55.349Z,3287.00
2022-12-27T20:48:55.293Z,3281.00
2022-12-27T20:49:55.469Z,3275.00
2022-12-27T20:50:55.432Z,3261.00
2022-12-27T20:51:55.346Z,3252.00
2022-12-27T20:52:55.507Z,3240.00
2022-12-27T20:53:55.491Z,3126.00
2022-12-27T20:54:55.447Z,2954.00
2022-12-27T20:55:55.526Z,2844.00
2022-12-27T20:56:55.471Z,2903.00
2022-12-27T20:57:55.662Z,2932.00
2022-12-27T20:58:55.701Z,2939.00
2022-12-27T20:59:55.460Z,2941.00
2022-12-27T21:00:55.625Z,2979.00
2022-12-27T21:01:57.382Z,3033.00
2022-12-27T21:02:55.612Z,3117.00
2022-12-27T21:03:55.542Z,3184.00
2022-12-27T21:04:55.539Z,3195.00
2022-12-27T21:05:55.615Z,3206.00
2022-12-27T21:06:55.585Z,3294.00
2022-12-27T21:07:55.628Z,3347.00
2022-12-27T21:08:57.748Z,3416.00
2022-12-27T21:09:55.651Z,3420.00
2022-12-27T21:10:55.756Z,3439.00
2022-12-27T21:11:55.701Z,3473.00
2022-12-27T21:12:55.737Z,3495.00
2022-12-27T21:13:55.920Z,3517.00
2022-12-27T21:14:55.972Z,3515.00
2022-12-27T21:15:55.855Z,3464.00
2022-12-27T21:16:55.905Z,3406.00
2022-12-27T21:17:55.851Z,3357.00
2022-12-27T21:18:56.058Z,3339.00
2022-12-27T21:19:55.972Z,3281.00
2022-12-27T21:20:56.050Z,3305.00
2022-12-27T21:21:55.967Z,3279.00
2022-12-27T21:22:55.957Z,3310.00
2022-12-27T21:23:56.038Z,3330.00
2022-12-27T21:24:56.180Z,3342.00
2022-12-27T21:25:56.185Z,3347.00
2022-12-27T21:26:56.642Z,3336.00
2022-12-27T21:27:56.109Z,3329.00
2022-12-27T21:28:56.156Z,3315.00
2022-12-27T21:29:56.114Z,3325.00
2022-12-27T21:30:56.418Z,3301.00
2022-12-27T21:31:56.331Z,3287.00
2022-12-27T21:32:56.293Z,3265.00
2022-12-27T21:33:56.360Z,3255.00
2022-12-27T21:34:56.306Z,3223.00
2022-12-27T21:35:56.417Z,3197.00
2022-12-27T21:36:56.322Z,3121.00
2022-12-27T21:37:56.348Z,3105.00
2022-12-27T21:38:56.402Z,3118.00
2022-12-27T21:39:56.425Z,3149.00
2022-12-27T21:40:56.398Z,3186.00
2022-12-27T21:41:56.798Z,3230.00
2022-12-27T21:42:56.727Z,3267.00
2022-12-27T21:43:56.760Z,3287.00
2022-12-27T21:44:56.599Z,3332.00
2022-12-27T21:45:56.672Z,3353.00
2022-12-27T21:46:56.679Z,3354.00
2022-12-27T21:47:56.682Z,3388.00
2022-12-27T21:48:56.624Z,3414.00
2022-12-27T21:49:56.718Z,3428.00
2022-12-27T21:50:56.725Z,3423.00
2022-12-27T21:51:56.717Z,3418.00
2022-12-27T21:52:56.688Z,3398.00
2022-12-27T21:53:56.814Z,3384.00
2022-12-27T21:54:56.762Z,3343.00
2022-12-27T21:55:56.852Z,3255.00
2022-12-27T21:56:56.777Z,3131.00
2022-12-27T21:57:56.810Z,3146.00
2022-12-27T21:58:56.831Z,3141.00
2022-12-27T21:59:57.033Z,3134.00
2022-12-27T22:00:58.146Z,3036.00
2022-12-27T22:01:57.090Z,3049.00
2022-12-27T22:02:57.198Z,3064.00
2022-12-27T22:03:57.171Z,3053.00
2022-12-27T22:04:57.128Z,3077.00
2022-12-27T22:05:57.075Z,3077.00
2022-12-27T22:06:57.121Z,3095.00
2022-12-27T22:07:57.497Z,3071.00
2022-12-27T22:08:57.163Z,3076.00
2022-12-27T22:09:57.167Z,3073.00
2022-12-27T22:10:57.122Z,3110.00
2022-12-27T22:11:57.225Z,3131.00
2022-12-27T22:12:57.326Z,3162.00
2022-12-27T22:13:57.219Z,3178.00
2022-12-27T22:14:57.354Z,3193.00
2022-12-27T22:15:57.272Z,3233.00
2022-12-27T22:16:57.221Z,3233.00
2022-12-27T22:17:57.330Z,3239.00
2022-12-27T22:18:57.912Z,3241.00
2022-12-27T22:19:57.304Z,3240.00
2022-12-27T22:20:57.382Z,3250.00
2022-12-27T22:21:57.439Z,3303.00
2022-12-27T22:22:57.357Z,3300.00
2022-12-27T22:23:57.347Z,3300.00
2022-12-27T22:24:57.448Z,3293.00
2022-12-27T22:25:57.562Z,3279.00
2022-12-27T22:26:57.528Z,3271.00
2022-12-27T22:27:57.478Z,3266.00
2022-12-27T22:28:57.509Z,3230.00
2022-12-27T22:29:57.568Z,3237.00
2022-12-27T22:30:57.633Z,3261.00
2022-12-27T22:31:57.534Z,3238.00
2022-12-27T22:32:57.599Z,3224.00
2022-12-27T22:33:57.534Z,3214.00
2022-12-27T22:34:57.544Z,3185.00
2022-12-27T22:35:57.646Z,3227.00
2022-12-27T22:36:57.673Z,3246.00
2022-12-27T22:37:57.694Z,3250.00
2022-12-27T22:38:57.709Z,3254.00
2022-12-27T22:39:57.752Z,3228.00
2022-12-27T22:40:57.691Z,3165.00
2022-12-27T22:41:57.741Z,3163.00
2022-12-27T22:42:57.847Z,3171.00
2022-12-27T22:43:58.025Z,3206.00
2022-12-27T22:44:57.965Z,3205.00
2022-12-27T22:45:57.972Z,3220.00
2022-12-27T22:47:24.994Z,3247.00
2022-12-27T22:47:57.850Z,3248.00
2022-12-27T22:48:57.924Z,3248.00
2022-12-27T22:49:57.984Z,3318.00
2022-12-27T22:50:57.923Z,3911.00
2022-12-27T22:51:57.944Z,4292.00
2022-12-27T22:52:58.176Z,4441.00
2022-12-27T22:53:57.993Z,3937.00
2022-12-27T22:55:05.844Z,3745.00
2022-12-27T22:55:58.007Z,3664.00
2022-12-27T22:56:58.005Z,3460.00
2022-12-27T22:57:58.039Z,3299.00
2022-12-27T22:58:58.068Z,3206.00
2022-12-27T22:59:58.304Z,3190.00
2022-12-27T23:00:58.200Z,3167.00
2022-12-27T23:01:58.445Z,3157.00
2022-12-27T23:02:58.198Z,3157.00
2022-12-27T23:03:58.222Z,3143.00
2022-12-27T23:04:58.486Z,3139.00
2022-12-27T23:05:58.254Z,3130.00
2022-12-27T23:06:58.336Z,3132.00
2022-12-27T23:08:05.748Z,3161.00
2022-12-27T23:08:58.348Z,3163.00
2022-12-27T23:09:58.337Z,3176.00
2022-12-27T23:10:58.383Z,3297.00
2022-12-27T23:11:58.434Z,3454.00
2022-12-27T23:12:58.336Z,3462.00
2022-12-27T23:13:58.392Z,3318.00
2022-12-27T23:14:58.464Z,3253.00
2022-12-27T23:15:58.709Z,3226.00
2022-12-27T23:16:58.394Z,3208.00
2022-12-27T23:17:58.522Z,3191.00
2022-12-27T23:18:58.476Z,3156.00
2022-12-27T23:19:58.421Z,3167.00
2022-12-27T23:21:20.990Z,3146.00
2022-12-27T23:21:58.464Z,3146.00
2022-12-27T23:22:58.474Z,3136.00
2022-12-27T23:23:58.517Z,3120.00
2022-12-27T23:24:58.520Z,3123.00
2022-12-27T23:25:58.526Z,3110.00
2022-12-27T23:26:58.552Z,3107.00
2022-12-27T23:27:58.558Z,3104.00
2022-12-27T23:28:58.521Z,3097.00
2022-12-27T23:29:58.531Z,3109.00
2022-12-27T23:30:58.553Z,3119.00
2022-12-27T23:31:58.658Z,3162.00
2022-12-27T23:32:58.574Z,3182.00
2022-12-27T23:33:58.578Z,3208.00
2022-12-27T23:34:58.564Z,3193.00
2022-12-27T23:35:58.596Z,3205.00
2022-12-27T23:36:58.731Z,3237.00
2022-12-27T23:37:58.630Z,3263.00
2022-12-27T23:38:58.634Z,3284.00
2022-12-27T23:39:58.647Z,3297.00
2022-12-27T23:40:58.653Z,3310.00
2022-12-27T23:41:58.775Z,3330.00
2022-12-27T23:43:12.474Z,3337.00
2022-12-27T23:43:58.955Z,3338.00
2022-12-27T23:44:58.746Z,3340.00
2022-12-27T23:45:58.753Z,3336.00
2022-12-27T23:46:58.844Z,3322.00
2022-12-27T23:47:58.797Z,3303.00
2022-12-27T23:48:58.836Z,3320.00
2022-12-27T23:49:58.918Z,3290.00
2022-12-27T23:50:59.098Z,3312.00
2022-12-27T23:51:59.115Z,3303.00
2022-12-27T23:52:58.997Z,3292.00
2022-12-27T23:53:59.206Z,3280.00
2022-12-27T23:54:59.164Z,3302.00
2022-12-27T23:55:59.435Z,3283.00
2022-12-27T23:57:22.477Z,3288.00
2022-12-27T23:58:00.033Z,3290.00
2022-12-27T23:58:59.130Z,3290.00
2022-12-27T23:59:59.204Z,3297.00
